Time,TemperatureF,DewpointF,PressureIn,WindDirection,WindDirectionDegrees,WindSpeedMPH,WindSpeedGustMPH,Humidity,HourlyPrecipIn,Conditions,Clouds,dailyrainin,SoftwareType,DateUTC
2013-11-28 00:00:00,28.5,18.6,30.12,WSW,256,8.0,10.0,66,0.00,,SKC,0.00,VWS V14.01,2013-11-28 06:00:00,
2013-11-28 00:01:00,28.6,18.7,30.12,SW,225,5.0,9.0,66,0.00,,SKC,0.00,VWS V14.01,2013-11-28 06:01:00,
2013-11-28 00:09:00,28.7,18.8,30.13,WSW,241,6.0,11.0,66,0.00,,SKC,0.00,VWS V14.01,2013-11-28 06:09:00,
2013-11-28 00:13:00,28.7,19.1,30.13,West,261,6.0,11.0,67,0.00,,SKC,0.00,VWS V14.01,2013-11-28 06:13:00,
2013-11-28 00:17:00,28.8,18.9,30.13,WSW,250,6.0,11.0,66,0.00,,SKC,0.00,VWS V14.01,2013-11-28 06:17:00,
2013-11-28 00:21:00,28.6,18.7,30.13,WSW,248,6.0,11.0,66,0.00,,SKC,0.00,VWS V14.01,2013-11-28 06:21:00,
2013-11-28 00:25:00,28.3,18.4,30.13,SW,220,0.0,11.0,66,0.00,,SKC,0.00,VWS V14.01,2013-11-28 06:25:00,
2013-11-28 00:29:00,27.8,18.6,30.13,WSW,247,6.0,11.0,68,0.00,,SKC,0.00,VWS V14.01,2013-11-28 06:29:00,
2013-11-28 00:30:00,27.8,18.6,30.13,WSW,248,7.0,11.0,68,0.00,,SKC,0.00,VWS V14.01,2013-11-28 06:30:00,
2013-11-28 00:33:00,27.8,18.6,30.13,WSW,255,3.0,7.0,68,0.00,,SKC,0.00,VWS V14.01,2013-11-28 06:33:00,
2013-11-28 00:41:00,27.7,18.5,30.14,WSW,252,3.0,7.0,68,0.00,,SKC,0.00,VWS V14.01,2013-11-28 06:41:00,
2013-11-28 00:45:00,27.6,18.4,30.14,WSW,238,4.0,7.0,68,0.00,,SKC,0.00,VWS V14.01,2013-11-28 06:45:00,
2013-11-28 00:49:00,27.3,18.5,30.14,WSW,254,3.0,7.0,69,0.00,,SKC,0.00,VWS V14.01,2013-11-28 06:49:00,
2013-11-28 00:53:00,27.3,18.5,30.14,West,267,8.0,8.0,69,0.00,,SKC,0.00,VWS V14.01,2013-11-28 06:53:00,
2013-11-28 00:57:00,27.4,18.6,30.14,WSW,250,5.0,8.0,69,0.00,,SKC,0.00,VWS V14.01,2013-11-28 06:57:00,
2013-11-28 00:59:00,27.4,18.6,30.14,WSW,242,5.0,8.0,69,0.00,,SKC,0.00,VWS V14.01,2013-11-28 06:59:00,
2013-11-28 01:00:00,27.4,18.6,30.14,WSW,242,5.0,8.0,69,0.00,,SKC,0.00,VWS V14.01,2013-11-28 07:00:00,
2013-11-28 01:05:00,27.4,18.6,30.14,WSW,252,2.0,7.0,69,0.00,,SKC,0.00,VWS V14.01,2013-11-28 07:05:00,
2013-11-28 01:09:00,27.4,18.6,30.15,West,259,3.0,7.0,69,0.00,,SKC,0.00,VWS V14.01,2013-11-28 07:09:00,
2013-11-28 01:13:00,27.6,19.1,30.15,WSW,250,6.0,12.0,70,0.00,,SKC,0.00,VWS V14.01,2013-11-28 07:13:00,
2013-11-28 01:17:00,27.8,19.3,30.15,WSW,240,1.0,12.0,70,0.00,,SKC,0.00,VWS V14.01,2013-11-28 07:17:00,
2013-11-28 01:21:00,27.8,19.0,30.15,WSW,250,3.0,12.0,69,0.00,,SKC,0.00,VWS V14.01,2013-11-28 07:21:00,
2013-11-28 01:25:00,28.0,19.2,30.15,WSW,248,2.0,12.0,69,0.00,,SKC,0.00,VWS V14.01,2013-11-28 07:25:00,
2013-11-28 01:29:00,27.8,19.0,30.15,WSW,238,4.0,12.0,69,0.00,,SKC,0.00,VWS V14.01,2013-11-28 07:29:00,
2013-11-28 01:30:00,27.8,19.0,30.15,WSW,238,4.0,12.0,69,0.00,,SKC,0.00,VWS V14.01,2013-11-28 07:30:00,
2013-11-28 01:33:00,27.4,18.9,30.16,WSW,247,3.0,5.0,70,0.00,,SKC,0.00,VWS V14.01,2013-11-28 07:33:00,
2013-11-28 01:37:00,27.5,19.4,30.16,West,267,6.0,15.0,71,0.00,,SKC,0.00,VWS V14.01,2013-11-28 07:37:00,
2013-11-28 01:41:00,28.3,20.1,30.16,West,274,6.0,15.0,71,0.00,,SKC,0.00,VWS V14.01,2013-11-28 07:41:00,
2013-11-28 01:49:00,28.4,19.5,30.17,WSW,248,3.0,15.0,69,0.00,,SKC,0.00,VWS V14.01,2013-11-28 07:49:00,
2013-11-28 01:53:00,28.0,19.5,30.17,West,263,3.0,15.0,70,0.00,,SKC,0.00,VWS V14.01,2013-11-28 07:53:00,
2013-11-28 01:57:00,28.1,20.2,30.17,West,275,3.0,15.0,72,0.00,,SKC,0.00,VWS V14.01,2013-11-28 07:57:00,
2013-11-28 01:59:00,28.3,20.1,30.17,West,279,1.0,15.0,71,0.00,,SKC,0.00,VWS V14.01,2013-11-28 07:59:00,
2013-11-28 02:00:00,28.3,20.1,30.17,West,279,1.0,15.0,71,0.00,,SKC,0.00,VWS V14.01,2013-11-28 08:00:00,
2013-11-28 02:01:00,28.5,20.3,30.17,WNW,288,2.0,4.0,71,0.00,,SKC,0.00,VWS V14.01,2013-11-28 08:01:00,
2013-11-28 02:05:00,28.8,20.9,30.17,WNW,300,2.0,4.0,72,0.00,,SKC,0.00,VWS V14.01,2013-11-28 08:05:00,
2013-11-28 02:09:00,29.0,20.8,30.17,WNW,303,3.0,6.0,71,0.00,,SKC,0.00,VWS V14.01,2013-11-28 08:09:00,
2013-11-28 02:13:00,29.2,21.0,30.18,NW,317,2.0,8.0,71,0.00,,SKC,0.00,VWS V14.01,2013-11-28 08:13:00,
2013-11-28 02:17:00,29.3,21.1,30.18,NW,310,3.0,8.0,71,0.00,,SKC,0.00,VWS V14.01,2013-11-28 08:17:00,
2013-11-28 02:21:00,29.1,20.9,30.18,WNW,301,3.0,8.0,71,0.00,,SKC,0.00,VWS V14.01,2013-11-28 08:21:00,
2013-11-28 02:25:00,28.9,21.0,30.18,NW,309,2.0,8.0,72,0.00,,SKC,0.00,VWS V14.01,2013-11-28 08:25:00,
2013-11-28 02:29:00,28.9,21.0,30.18,NW,313,1.0,8.0,72,0.00,,SKC,0.00,VWS V14.01,2013-11-28 08:29:00,
2013-11-28 02:30:00,28.9,21.0,30.18,NW,313,1.0,8.0,72,0.00,,SKC,0.00,VWS V14.01,2013-11-28 08:30:00,
2013-11-28 02:33:00,28.8,20.9,30.18,West,280,5.0,7.0,72,0.00,,SKC,0.00,VWS V14.01,2013-11-28 08:33:00,
2013-11-28 02:41:00,29.8,21.9,30.19,NNW,328,4.0,10.0,72,0.00,,SKC,0.00,VWS V14.01,2013-11-28 08:41:00,
2013-11-28 02:45:00,29.9,21.7,30.19,NNW,344,2.0,10.0,71,0.00,,SKC,0.00,VWS V14.01,2013-11-28 08:45:00,
2013-11-28 02:49:00,29.9,21.7,30.19,NNW,338,3.0,10.0,71,0.00,,SKC,0.00,VWS V14.01,2013-11-28 08:49:00,
2013-11-28 02:57:00,30.1,21.5,30.20,NW,321,2.0,13.0,70,0.00,,SKC,0.00,VWS V14.01,2013-11-28 08:57:00,
2013-11-28 02:59:00,30.1,21.5,30.20,NW,314,3.0,13.0,70,0.00,,SKC,0.00,VWS V14.01,2013-11-28 08:59:00,
2013-11-28 03:00:00,30.1,21.5,30.20,NW,314,3.0,13.0,70,0.00,,SKC,0.00,VWS V14.01,2013-11-28 09:00:00,
2013-11-28 03:05:00,29.9,21.7,30.20,NNW,343,5.0,8.0,71,0.00,,SKC,0.00,VWS V14.01,2013-11-28 09:05:00,
2013-11-28 03:09:00,29.8,21.2,30.20,North,11,11.0,12.0,70,0.00,,SKC,0.00,VWS V14.01,2013-11-28 09:09:00,
2013-11-28 03:13:00,29.8,21.2,30.20,NW,321,7.0,14.0,70,0.00,,SKC,0.00,VWS V14.01,2013-11-28 09:13:00,
2013-11-28 03:17:00,29.7,21.5,30.20,NNW,335,7.0,14.0,71,0.00,,SKC,0.00,VWS V14.01,2013-11-28 09:17:00,
2013-11-28 03:21:00,29.4,21.2,30.21,WNW,300,5.0,14.0,71,0.00,,SKC,0.00,VWS V14.01,2013-11-28 09:21:00,
2013-11-28 03:29:00,29.0,21.1,30.20,NW,318,8.0,14.0,72,0.00,,SKC,0.00,VWS V14.01,2013-11-28 09:29:00,
2013-11-28 03:30:00,29.0,21.1,30.20,NW,318,8.0,14.0,72,0.00,,SKC,0.00,VWS V14.01,2013-11-28 09:30:00,
2013-11-28 03:33:00,29.0,21.1,30.21,NW,311,3.0,11.0,72,0.00,,SKC,0.00,VWS V14.01,2013-11-28 09:33:00,
2013-11-28 03:37:00,29.0,21.1,30.21,NW,313,6.0,14.0,72,0.00,,SKC,0.00,VWS V14.01,2013-11-28 09:37:00,
2013-11-28 03:41:00,28.9,21.0,30.21,NW,319,3.0,15.0,72,0.00,,SKC,0.00,VWS V14.01,2013-11-28 09:41:00,
2013-11-28 03:45:00,28.7,20.8,30.21,NNW,327,6.0,15.0,72,0.00,,SKC,0.00,VWS V14.01,2013-11-28 09:45:00,
2013-11-28 03:49:00,28.5,20.6,30.22,NNW,327,5.0,15.0,72,0.00,,SKC,0.00,VWS V14.01,2013-11-28 09:49:00,
2013-11-28 03:53:00,28.2,20.4,30.22,NW,319,6.0,15.0,72,0.00,,SKC,0.00,VWS V14.01,2013-11-28 09:53:00,
2013-11-28 03:57:00,28.1,20.6,30.22,NNW,336,6.0,15.0,73,0.00,,SKC,0.00,VWS V14.01,2013-11-28 09:57:00,
2013-11-28 04:00:00,28.0,20.5,30.22,NNW,332,3.0,15.0,73,0.00,,SKC,0.00,VWS V14.01,2013-11-28 10:00:00,
2013-11-28 04:01:00,28.0,20.5,30.22,NNW,331,5.0,10.0,73,0.00,,SKC,0.00,VWS V14.01,2013-11-28 10:01:00,
2013-11-28 04:09:00,27.6,20.1,30.22,WNW,288,5.0,11.0,73,0.00,,SKC,0.00,VWS V14.01,2013-11-28 10:09:00,
2013-11-28 04:13:00,27.5,20.3,30.22,NNW,328,8.0,11.0,74,0.00,,SKC,0.00,VWS V14.01,2013-11-28 10:13:00,
2013-11-28 04:17:00,27.4,20.2,30.22,NNW,336,7.0,16.0,74,0.00,,SKC,0.00,VWS V14.01,2013-11-28 10:17:00,
2013-11-28 04:21:00,27.4,20.2,30.22,NNW,344,7.0,16.0,74,0.00,,SKC,0.00,VWS V14.01,2013-11-28 10:21:00,
2013-11-28 04:25:00,27.3,20.1,30.22,NW,317,6.0,16.0,74,0.00,,SKC,0.00,VWS V14.01,2013-11-28 10:25:00,
2013-11-28 04:29:00,27.1,19.9,30.23,NW,313,6.0,8.0,74,0.00,,SKC,0.00,VWS V14.01,2013-11-28 10:29:00,
2013-11-28 04:30:00,27.2,20.0,30.23,North,350,7.0,16.0,74,0.00,,SKC,0.00,VWS V14.01,2013-11-28 10:30:00,
2013-11-28 04:33:00,27.0,20.1,30.23,North,355,6.0,12.0,75,0.00,,SKC,0.00,VWS V14.01,2013-11-28 10:33:00,
2013-11-28 04:37:00,26.7,19.9,30.23,NW,323,9.0,12.0,75,0.00,,SKC,0.00,VWS V14.01,2013-11-28 10:37:00,
2013-11-28 04:41:00,26.5,19.7,30.23,NW,311,8.0,12.0,75,0.00,,SKC,0.00,VWS V14.01,2013-11-28 10:41:00,
2013-11-28 04:49:00,26.3,19.8,30.24,NNW,333,2.0,12.0,76,0.00,,SKC,0.00,VWS V14.01,2013-11-28 10:49:00,
2013-11-28 04:53:00,26.1,19.6,30.25,NW,323,6.0,12.0,76,0.00,,SKC,0.00,VWS V14.01,2013-11-28 10:53:00,
2013-11-28 04:57:00,25.9,19.4,30.25,NW,315,1.0,12.0,76,0.00,,SKC,0.00,VWS V14.01,2013-11-28 10:57:00,
2013-11-28 04:59:00,25.8,19.3,30.25,WNW,296,4.0,12.0,76,0.00,,SKC,0.00,VWS V14.01,2013-11-28 10:59:00,
2013-11-28 05:00:00,25.8,19.3,30.25,WNW,296,4.0,12.0,76,0.00,,SKC,0.00,VWS V14.01,2013-11-28 11:00:00,
2013-11-28 05:01:00,25.7,19.5,30.25,NNW,341,5.0,9.0,77,0.00,,SKC,0.00,VWS V14.01,2013-11-28 11:01:00,
2013-11-28 05:05:00,25.6,19.4,30.26,NW,320,8.0,12.0,77,0.00,,SKC,0.00,VWS V14.01,2013-11-28 11:05:00,
2013-11-28 05:09:00,25.5,19.3,30.26,NW,319,5.0,12.0,77,0.00,,SKC,0.00,VWS V14.01,2013-11-28 11:09:00,
2013-11-28 05:17:00,25.2,19.3,30.26,NW,305,3.0,12.0,78,0.00,,SKC,0.00,VWS V14.01,2013-11-28 11:17:00,
2013-11-28 05:21:00,25.0,19.1,30.26,NW,308,6.0,14.0,78,0.00,,SKC,0.00,VWS V14.01,2013-11-28 11:21:00,
2013-11-28 05:25:00,25.0,18.8,30.27,NW,306,1.0,14.0,77,0.00,,SKC,0.00,VWS V14.01,2013-11-28 11:25:00,
2013-11-28 05:29:00,24.9,18.7,30.27,NW,306,7.0,14.0,77,0.00,,SKC,0.00,VWS V14.01,2013-11-28 11:29:00,
2013-11-28 05:30:00,24.9,18.7,30.27,NW,306,7.0,14.0,77,0.00,,SKC,0.00,VWS V14.01,2013-11-28 11:30:00,
2013-11-28 05:33:00,24.6,18.4,30.28,NNW,327,7.0,10.0,77,0.00,,SKC,0.00,VWS V14.01,2013-11-28 11:33:00,
2013-11-28 05:37:00,24.3,18.1,30.28,North,5,7.0,11.0,77,0.00,,SKC,0.00,VWS V14.01,2013-11-28 11:37:00,
2013-11-28 05:46:00,24.2,18.0,30.28,North,355,13.0,18.0,77,0.00,,SKC,0.00,VWS V14.01,2013-11-28 11:46:00,
2013-11-28 05:50:00,24.2,17.7,30.28,NW,312,7.0,20.0,76,0.00,,SKC,0.00,VWS V14.01,2013-11-28 11:50:00,
2013-11-28 05:54:00,24.0,17.5,30.28,North,360,15.0,20.0,76,0.00,,SKC,0.00,VWS V14.01,2013-11-28 11:54:00,
2013-11-28 05:58:00,23.9,17.5,30.28,NNW,334,8.0,20.0,76,0.00,,SKC,0.00,VWS V14.01,2013-11-28 11:58:00,
2013-11-28 05:59:00,23.8,17.4,30.28,NW,318,12.0,20.0,76,0.00,,SKC,0.00,VWS V14.01,2013-11-28 11:59:00,
2013-11-28 06:00:00,23.8,17.4,30.28,NW,318,12.0,20.0,76,0.00,,SKC,0.00,VWS V14.01,2013-11-28 12:00:00,
2013-11-28 06:02:00,23.7,17.3,30.28,NW,314,7.0,12.0,76,0.00,,SKC,0.00,VWS V14.01,2013-11-28 12:02:00,
2013-11-28 06:06:00,23.5,17.1,30.29,NW,307,9.0,13.0,76,0.00,,SKC,0.00,VWS V14.01,2013-11-28 12:06:00,
2013-11-28 06:10:00,23.3,17.2,30.29,NW,316,12.0,13.0,77,0.00,,SKC,0.00,VWS V14.01,2013-11-28 12:10:00,
2013-11-28 06:14:00,23.2,17.1,30.29,NW,316,5.0,13.0,77,0.00,,SKC,0.00,VWS V14.01,2013-11-28 12:14:00,
2013-11-28 06:18:00,23.1,17.0,30.30,NNW,336,8.0,14.0,77,0.00,,SKC,0.00,VWS V14.01,2013-11-28 12:18:00,
2013-11-28 06:22:00,23.0,16.9,30.30,North,355,6.0,14.0,77,0.00,,SKC,0.00,VWS V14.01,2013-11-28 12:22:00,
2013-11-28 06:26:00,22.8,16.7,30.30,NW,325,6.0,14.0,77,0.00,,SKC,0.00,VWS V14.01,2013-11-28 12:26:00,
2013-11-28 06:29:00,22.7,16.9,30.30,North,5,8.0,14.0,78,0.00,,SKC,0.00,VWS V14.01,2013-11-28 12:29:00,
2013-11-28 06:30:00,22.7,16.9,30.30,NW,322,4.0,8.0,78,0.00,,SKC,0.00,VWS V14.01,2013-11-28 12:30:00,
2013-11-28 06:34:00,22.6,16.8,30.31,North,5,9.0,15.0,78,0.00,,SKC,0.00,VWS V14.01,2013-11-28 12:34:00,
2013-11-28 06:42:00,22.5,17.0,30.31,NW,318,9.0,15.0,79,0.00,,SKC,0.00,VWS V14.01,2013-11-28 12:42:00,
2013-11-28 06:46:00,22.4,16.9,30.32,NW,323,11.0,15.0,79,0.00,,SKC,0.00,VWS V14.01,2013-11-28 12:46:00,
2013-11-28 06:50:00,22.3,16.8,30.32,North,355,8.0,15.0,79,0.00,,SKC,0.00,VWS V14.01,2013-11-28 12:50:00,
2013-11-28 06:58:00,22.1,16.9,30.32,NW,324,7.0,15.0,80,0.00,,SKC,0.00,VWS V14.01,2013-11-28 12:58:00,
2013-11-28 06:59:00,22.1,16.9,30.32,NW,321,7.0,15.0,80,0.00,,SKC,0.00,VWS V14.01,2013-11-28 12:59:00,
2013-11-28 07:00:00,22.1,16.9,30.32,NW,321,7.0,15.0,80,0.00,,SKC,0.00,VWS V14.01,2013-11-28 13:00:00,
2013-11-28 07:02:00,22.2,17.0,30.32,NW,325,8.0,14.0,80,0.00,,SKC,0.00,VWS V14.01,2013-11-28 13:02:00,
2013-11-28 07:06:00,22.2,17.0,30.32,North,5,4.0,14.0,80,0.00,,SKC,0.00,VWS V14.01,2013-11-28 13:06:00,
2013-11-28 07:10:00,22.1,16.9,30.32,NNW,343,8.0,14.0,80,0.00,,SKC,0.00,VWS V14.01,2013-11-28 13:10:00,
2013-11-28 07:14:00,22.0,17.1,30.33,North,355,11.0,14.0,81,0.00,,SKC,0.00,VWS V14.01,2013-11-28 13:14:00,
2013-11-28 07:18:00,21.8,16.9,30.33,NW,324,3.0,14.0,81,0.00,,SKC,0.00,VWS V14.01,2013-11-28 13:18:00,
2013-11-28 07:26:00,21.6,17.0,30.33,North,350,4.0,14.0,82,0.00,,SKC,0.00,VWS V14.01,2013-11-28 13:26:00,
2013-11-28 07:29:00,21.6,17.0,30.33,NNW,336,4.0,14.0,82,0.00,,SKC,0.00,VWS V14.01,2013-11-28 13:29:00,
2013-11-28 07:30:00,21.5,16.9,30.34,NNW,331,2.0,7.0,82,0.00,,SKC,0.00,VWS V14.01,2013-11-28 13:30:00,
2013-11-28 07:34:00,21.5,16.9,30.34,North,350,4.0,8.0,82,0.00,,SKC,0.00,VWS V14.01,2013-11-28 13:34:00,
2013-11-28 07:38:00,21.5,17.1,30.34,NNW,327,2.0,8.0,83,0.00,,SKC,0.00,VWS V14.01,2013-11-28 13:38:00,
2013-11-28 07:42:00,21.5,17.1,30.35,NW,323,3.0,8.0,83,0.00,,SKC,0.00,VWS V14.01,2013-11-28 13:42:00,
2013-11-28 07:50:00,21.6,17.2,30.35,NNW,329,1.0,8.0,83,0.00,,SKC,0.00,VWS V14.01,2013-11-28 13:50:00,
2013-11-28 07:54:00,21.6,17.2,30.35,NW,309,4.0,8.0,83,0.00,,SKC,0.00,VWS V14.01,2013-11-28 13:54:00,
2013-11-28 07:58:00,21.7,17.3,30.35,NNW,327,4.0,8.0,83,0.00,,SKC,0.00,VWS V14.01,2013-11-28 13:58:00,
2013-11-28 07:59:00,21.7,17.3,30.35,North,355,4.0,9.0,83,0.00,,SKC,0.00,VWS V14.01,2013-11-28 13:59:00,
2013-11-28 08:00:00,21.7,17.3,30.35,North,355,4.0,9.0,83,0.00,,SKC,0.00,VWS V14.01,2013-11-28 14:00:00,
2013-11-28 08:02:00,21.7,17.3,30.36,North,355,6.0,6.0,83,0.00,,SKC,0.00,VWS V14.01,2013-11-28 14:02:00,
2013-11-28 08:06:00,21.8,17.4,30.35,NW,316,7.0,9.0,83,0.00,,SKC,0.00,VWS V14.01,2013-11-28 14:06:00,
2013-11-28 08:10:00,22.1,17.7,30.36,North,355,5.0,10.0,83,0.00,,SKC,0.00,VWS V14.01,2013-11-28 14:10:00,
2013-11-28 08:18:00,22.8,18.4,30.36,WNW,299,6.0,11.0,83,0.00,,SKC,0.00,VWS V14.01,2013-11-28 14:18:00,
2013-11-28 08:22:00,23.2,18.8,30.36,NNW,342,4.0,11.0,83,0.00,,SKC,0.00,VWS V14.01,2013-11-28 14:22:00,
2013-11-28 08:26:00,23.6,19.2,30.37,North,5,8.0,11.0,83,0.00,,SKC,0.00,VWS V14.01,2013-11-28 14:26:00,
2013-11-28 08:29:00,23.9,19.2,30.37,NNW,329,4.0,11.0,82,0.00,,SKC,0.00,VWS V14.01,2013-11-28 14:29:00,
2013-11-28 08:30:00,23.9,19.2,30.37,NNW,329,4.0,11.0,82,0.00,,SKC,0.00,VWS V14.01,2013-11-28 14:30:00,
2013-11-28 08:34:00,24.3,19.6,30.37,North,355,2.0,10.0,82,0.00,,SKC,0.00,VWS V14.01,2013-11-28 14:34:00,
2013-11-28 08:42:00,24.6,19.9,30.38,North,5,5.0,12.0,82,0.00,,SKC,0.00,VWS V14.01,2013-11-28 14:42:00,
2013-11-28 08:50:00,25.3,20.3,30.38,NNW,348,10.0,14.0,81,0.00,,SKC,0.00,VWS V14.01,2013-11-28 14:50:00,
2013-11-28 08:54:00,25.5,20.5,30.38,North,349,11.0,14.0,81,0.00,,SKC,0.00,VWS V14.01,2013-11-28 14:54:00,
2013-11-28 08:58:00,25.8,20.8,30.38,North,360,10.0,14.0,81,0.00,,SKC,0.00,VWS V14.01,2013-11-28 14:58:00,
2013-11-28 08:59:00,25.8,20.8,30.38,North,355,9.0,14.0,81,0.00,,SKC,0.00,VWS V14.01,2013-11-28 14:59:00,
2013-11-28 09:00:00,25.8,20.8,30.38,North,355,9.0,14.0,81,0.00,,SKC,0.00,VWS V14.01,2013-11-28 15:00:00,
2013-11-28 09:06:00,26.2,20.9,30.39,North,360,11.0,14.0,80,0.00,,SKC,0.00,VWS V14.01,2013-11-28 15:06:00,
2013-11-28 09:14:00,26.5,20.9,30.39,NNE,14,8.0,15.0,79,0.00,,SKC,0.00,VWS V14.01,2013-11-28 15:14:00,
2013-11-28 09:18:00,26.7,21.1,30.39,NNW,344,8.0,15.0,79,0.00,,SKC,0.00,VWS V14.01,2013-11-28 15:18:00,
2013-11-28 09:22:00,26.8,21.2,30.39,NNW,330,12.0,15.0,79,0.00,,SKC,0.00,VWS V14.01,2013-11-28 15:22:00,
2013-11-28 09:29:00,26.8,20.9,30.39,North,355,16.0,19.0,78,0.00,,SKC,0.00,VWS V14.01,2013-11-28 15:29:00,
2013-11-28 09:30:00,26.8,20.9,30.40,North,360,15.0,16.0,78,0.00,,SKC,0.00,VWS V14.01,2013-11-28 15:30:00,
2013-11-28 09:38:00,26.9,21.0,30.39,NNW,348,10.0,19.0,78,0.00,,SKC,0.00,VWS V14.01,2013-11-28 15:38:00,
2013-11-28 09:42:00,26.9,21.0,30.40,NNW,327,9.0,19.0,78,0.00,,SKC,0.00,VWS V14.01,2013-11-28 15:42:00,
2013-11-28 09:46:00,27.0,21.1,30.40,North,5,8.0,19.0,78,0.00,,SKC,0.00,VWS V14.01,2013-11-28 15:46:00,
2013-11-28 09:50:00,27.1,20.9,30.41,NNE,23,7.0,19.0,77,0.00,,SKC,0.00,VWS V14.01,2013-11-28 15:50:00,
2013-11-28 09:54:00,27.3,21.1,30.41,North,360,9.0,19.0,77,0.00,,SKC,0.00,VWS V14.01,2013-11-28 15:54:00,
2013-11-28 09:59:00,27.1,20.9,30.41,North,351,17.0,20.0,77,0.00,,SKC,0.00,VWS V14.01,2013-11-28 15:59:00,
2013-11-28 10:00:00,27.1,20.9,30.41,North,351,17.0,20.0,77,0.00,,SKC,0.00,VWS V14.01,2013-11-28 16:00:00,
2013-11-28 10:02:00,27.1,20.9,30.41,NNE,27,13.0,20.0,77,0.00,,SKC,0.00,VWS V14.01,2013-11-28 16:02:00,
2013-11-28 10:10:00,27.1,20.5,30.42,North,360,12.0,20.0,76,0.00,,SKC,0.00,VWS V14.01,2013-11-28 16:10:00,
2013-11-28 10:14:00,27.1,20.5,30.42,North,5,15.0,20.0,76,0.00,,SKC,0.00,VWS V14.01,2013-11-28 16:14:00,
2013-11-28 10:22:00,27.2,20.6,30.42,North,360,13.0,20.0,76,0.00,,SKC,0.00,VWS V14.01,2013-11-28 16:22:00,
2013-11-28 10:26:00,27.4,20.8,30.42,North,5,9.0,20.0,76,0.00,,SKC,0.00,VWS V14.01,2013-11-28 16:26:00,
2013-11-28 10:29:00,27.5,20.9,30.42,NNE,21,9.0,20.0,76,0.00,,SKC,0.00,VWS V14.01,2013-11-28 16:29:00,
2013-11-28 10:30:00,27.6,21.0,30.43,North,351,8.0,11.0,76,0.00,,SKC,0.00,VWS V14.01,2013-11-28 16:30:00,
2013-11-28 10:34:00,27.5,20.6,30.43,North,355,13.0,16.0,75,0.00,,SKC,0.00,VWS V14.01,2013-11-28 16:34:00,
2013-11-28 10:38:00,27.6,20.7,30.43,North,360,11.0,16.0,75,0.00,,SKC,0.00,VWS V14.01,2013-11-28 16:38:00,
2013-11-28 10:42:00,27.7,20.8,30.43,NW,321,5.0,16.0,75,0.00,,SKC,0.00,VWS V14.01,2013-11-28 16:42:00,
2013-11-28 10:46:00,27.7,20.5,30.43,North,5,14.0,19.0,74,0.00,,SKC,0.00,VWS V14.01,2013-11-28 16:46:00,
2013-11-28 10:50:00,27.5,20.0,30.43,North,355,14.0,21.0,73,0.00,,SKC,0.00,VWS V14.01,2013-11-28 16:50:00,
2013-11-28 10:54:00,27.7,20.2,30.43,NNW,329,7.0,21.0,73,0.00,,SKC,0.00,VWS V14.01,2013-11-28 16:54:00,
2013-11-28 10:58:00,27.9,20.4,30.43,North,355,4.0,21.0,73,0.00,,SKC,0.00,VWS V14.01,2013-11-28 16:58:00,
2013-11-28 11:00:00,27.9,20.4,30.43,North,355,5.0,21.0,73,0.00,,SKC,0.00,VWS V14.01,2013-11-28 17:00:00,
2013-11-28 11:02:00,27.9,20.1,30.43,NNE,16,7.0,15.0,72,0.00,,SKC,0.00,VWS V14.01,2013-11-28 17:02:00,
2013-11-28 11:06:00,28.1,20.2,30.43,NNW,336,3.0,17.0,72,0.00,,SKC,0.00,VWS V14.01,2013-11-28 17:06:00,
2013-11-28 11:10:00,28.3,20.1,30.43,NNW,345,10.0,17.0,71,0.00,,SKC,0.00,VWS V14.01,2013-11-28 17:10:00,
2013-11-28 11:14:00,28.2,20.0,30.43,NW,322,6.0,17.0,71,0.00,,SKC,0.00,VWS V14.01,2013-11-28 17:14:00,
2013-11-28 11:18:00,28.1,19.9,30.43,NNW,342,8.0,17.0,71,0.00,,SKC,0.00,VWS V14.01,2013-11-28 17:18:00,
2013-11-28 11:22:00,28.2,20.0,30.43,NNW,329,7.0,17.0,71,0.00,,SKC,0.00,VWS V14.01,2013-11-28 17:22:00,
2013-11-28 11:26:00,28.3,19.8,30.43,North,10,9.0,17.0,70,0.00,,SKC,0.00,VWS V14.01,2013-11-28 17:26:00,
2013-11-28 11:29:00,28.5,20.0,30.43,North,350,4.0,17.0,70,0.00,,SKC,0.00,VWS V14.01,2013-11-28 17:29:00,
2013-11-28 11:30:00,28.6,20.1,30.43,North,5,9.0,9.0,70,0.00,,SKC,0.00,VWS V14.01,2013-11-28 17:30:00,
2013-11-28 11:38:00,27.9,18.0,30.43,NW,317,6.0,17.0,66,0.00,,SKC,0.00,VWS V14.01,2013-11-28 17:38:00,
2013-11-28 11:46:00,29.3,19.0,30.43,NW,309,7.0,18.0,65,0.00,,SKC,0.00,VWS V14.01,2013-11-28 17:46:00,
2013-11-28 11:50:00,29.6,18.9,30.43,NNW,334,9.0,18.0,64,0.00,,SKC,0.00,VWS V14.01,2013-11-28 17:50:00,
2013-11-28 11:54:00,30.1,19.0,30.43,North,5,14.0,18.0,63,0.00,,SKC,0.00,VWS V14.01,2013-11-28 17:54:00,
2013-11-28 11:58:00,30.0,18.6,30.43,North,355,8.0,18.0,62,0.00,,SKC,0.00,VWS V14.01,2013-11-28 17:58:00,
2013-11-28 11:59:00,30.0,18.6,30.43,North,5,10.0,18.0,62,0.00,,SKC,0.00,VWS V14.01,2013-11-28 17:59:00,
2013-11-28 12:00:00,30.0,18.6,30.43,North,5,10.0,18.0,62,0.00,,SKC,0.00,VWS V14.01,2013-11-28 18:00:00,
2013-11-28 12:02:00,29.9,18.5,30.43,NNE,15,5.0,14.0,62,0.00,,SKC,0.00,VWS V14.01,2013-11-28 18:02:00,
2013-11-28 12:10:00,30.5,18.3,30.43,NNE,13,9.0,17.0,60,0.00,,SKC,0.00,VWS V14.01,2013-11-28 18:10:00,
2013-11-28 12:14:00,30.7,18.5,30.43,North,360,13.0,17.0,60,0.00,,SKC,0.00,VWS V14.01,2013-11-28 18:14:00,
2013-11-28 12:18:00,30.7,18.5,30.42,North,355,7.0,17.0,60,0.00,,SKC,0.00,VWS V14.01,2013-11-28 18:18:00,
2013-11-28 12:22:00,30.8,18.2,30.43,North,355,8.0,17.0,59,0.00,,SKC,0.00,VWS V14.01,2013-11-28 18:22:00,
2013-11-28 12:26:00,31.3,19.0,30.43,North,5,17.0,17.0,60,0.00,,SKC,0.00,VWS V14.01,2013-11-28 18:26:00,
2013-11-28 12:29:00,31.2,18.5,30.42,North,360,3.0,17.0,59,0.00,,SKC,0.00,VWS V14.01,2013-11-28 18:29:00,
2013-11-28 12:30:00,31.2,18.5,30.42,NNE,32,5.0,16.0,59,0.00,,SKC,0.00,VWS V14.01,2013-11-28 18:30:00,
2013-11-28 12:34:00,31.2,18.2,30.42,North,5,9.0,18.0,58,0.00,,SKC,0.00,VWS V14.01,2013-11-28 18:34:00,
2013-11-28 12:42:00,31.0,17.6,30.43,NNE,32,12.0,21.0,57,0.00,,SKC,0.00,VWS V14.01,2013-11-28 18:42:00,
2013-11-28 12:46:00,30.8,17.4,30.43,North,355,11.0,21.0,57,0.00,,SKC,0.00,VWS V14.01,2013-11-28 18:46:00,
2013-11-28 12:54:00,31.4,17.9,30.43,North,355,6.0,21.0,57,0.00,,SKC,0.00,VWS V14.01,2013-11-28 18:54:00,
2013-11-28 12:58:00,31.8,17.5,30.43,NNE,25,8.0,21.0,55,0.00,,SKC,0.00,VWS V14.01,2013-11-28 18:58:00,
2013-11-28 12:59:00,31.8,17.5,30.43,North,355,9.0,21.0,55,0.00,,SKC,0.00,VWS V14.01,2013-11-28 18:59:00,
2013-11-28 13:00:00,31.8,17.5,30.43,North,355,9.0,21.0,55,0.00,,SKC,0.00,VWS V14.01,2013-11-28 19:00:00,
2013-11-28 13:02:00,31.9,18.0,30.43,North,5,11.0,12.0,56,0.00,,SKC,0.00,VWS V14.01,2013-11-28 19:02:00,
2013-11-28 13:06:00,32.2,17.9,30.43,North,5,7.0,15.0,55,0.00,,SKC,0.00,VWS V14.01,2013-11-28 19:06:00,
2013-11-28 13:14:00,32.3,17.5,30.42,NNW,330,7.0,15.0,54,0.00,,SKC,0.00,VWS V14.01,2013-11-28 19:14:00,
2013-11-28 13:18:00,32.1,17.3,30.43,North,355,5.0,18.0,54,0.00,,SKC,0.00,VWS V14.01,2013-11-28 19:18:00,
2013-11-28 13:22:00,32.3,17.1,30.42,NNW,344,6.0,18.0,53,0.00,,SKC,0.00,VWS V14.01,2013-11-28 19:22:00,
2013-11-28 13:29:00,32.4,17.6,30.42,North,355,11.0,18.0,54,0.00,,SKC,0.00,VWS V14.01,2013-11-28 19:29:00,
2013-11-28 13:30:00,32.5,17.3,30.42,North,5,8.0,14.0,53,0.00,,SKC,0.00,VWS V14.01,2013-11-28 19:30:00,
2013-11-28 13:38:00,32.3,17.5,30.42,North,5,6.0,16.0,54,0.00,,SKC,0.00,VWS V14.01,2013-11-28 19:38:00,
2013-11-28 13:42:00,32.6,17.4,30.42,NNW,346,11.0,16.0,53,0.00,,SKC,0.00,VWS V14.01,2013-11-28 19:42:00,
2013-11-28 13:46:00,32.6,17.4,30.42,North,355,7.0,16.0,53,0.00,,SKC,0.00,VWS V14.01,2013-11-28 19:46:00,
2013-11-28 13:54:00,32.9,17.2,30.42,North,355,8.0,16.0,52,0.00,,SKC,0.00,VWS V14.01,2013-11-28 19:54:00,
2013-11-28 13:59:00,32.9,17.7,30.42,North,355,16.0,16.0,53,0.00,,SKC,0.00,VWS V14.01,2013-11-28 19:59:00,
2013-11-28 14:00:00,32.9,17.7,30.42,North,355,13.0,16.0,53,0.00,,SKC,0.00,VWS V14.01,2013-11-28 20:00:00,
2013-11-28 14:07:00,32.9,17.2,30.42,North,355,6.0,15.0,52,0.00,,SKC,0.00,VWS V14.01,2013-11-28 20:07:00,
2013-11-28 14:11:00,32.9,17.2,30.42,North,355,6.0,15.0,52,0.00,,SKC,0.00,VWS V14.01,2013-11-28 20:11:00,
2013-11-28 14:15:00,33.2,17.5,30.42,North,349,6.0,15.0,52,0.00,,SKC,0.00,VWS V14.01,2013-11-28 20:15:00,
2013-11-28 14:19:00,33.3,17.6,30.42,NNW,340,10.0,15.0,52,0.00,,SKC,0.00,VWS V14.01,2013-11-28 20:19:00,
2013-11-28 14:27:00,33.3,17.6,30.42,NW,321,2.0,15.0,52,0.00,,SKC,0.00,VWS V14.01,2013-11-28 20:27:00,
2013-11-28 14:29:00,33.5,17.8,30.42,NW,322,8.0,15.0,52,0.00,,SKC,0.00,VWS V14.01,2013-11-28 20:29:00,
2013-11-28 14:30:00,33.5,17.8,30.42,NW,322,8.0,15.0,52,0.00,,SKC,0.00,VWS V14.01,2013-11-28 20:30:00,
2013-11-28 14:31:00,33.5,17.3,30.42,NW,315,3.0,11.0,51,0.00,,SKC,0.00,VWS V14.01,2013-11-28 20:31:00,
2013-11-28 14:35:00,33.5,17.8,30.42,North,5,9.0,13.0,52,0.00,,SKC,0.00,VWS V14.01,2013-11-28 20:35:00,
2013-11-28 14:39:00,33.6,17.4,30.42,North,5,6.0,13.0,51,0.00,,SKC,0.00,VWS V14.01,2013-11-28 20:39:00,
2013-11-28 14:43:00,33.6,17.4,30.42,North,5,3.0,13.0,51,0.00,,SKC,0.00,VWS V14.01,2013-11-28 20:43:00,
2013-11-28 14:47:00,33.6,17.9,30.42,NW,317,7.0,13.0,52,0.00,,SKC,0.00,VWS V14.01,2013-11-28 20:47:00,
2013-11-28 14:51:00,33.6,17.9,30.42,North,5,7.0,13.0,52,0.00,,SKC,0.00,VWS V14.01,2013-11-28 20:51:00,
2013-11-28 14:55:00,33.5,17.3,30.42,North,355,9.0,13.0,51,0.00,,SKC,0.00,VWS V14.01,2013-11-28 20:55:00,
2013-11-28 14:59:00,33.5,17.8,30.43,North,360,6.0,13.0,52,0.00,,SKC,0.00,VWS V14.01,2013-11-28 20:59:00,
2013-11-28 15:00:00,33.5,17.8,30.43,North,5,3.0,13.0,52,0.00,,SKC,0.00,VWS V14.01,2013-11-28 21:00:00,
2013-11-28 15:07:00,33.6,17.9,30.43,North,9,8.0,10.0,52,0.00,,SKC,0.00,VWS V14.01,2013-11-28 21:07:00,
2013-11-28 15:11:00,33.6,17.4,30.43,North,360,3.0,10.0,51,0.00,,SKC,0.00,VWS V14.01,2013-11-28 21:11:00,
2013-11-28 15:15:00,33.8,17.6,30.43,NNW,348,6.0,10.0,51,0.00,,SKC,0.00,VWS V14.01,2013-11-28 21:15:00,
2013-11-28 15:19:00,33.8,18.0,30.43,NNE,15,3.0,10.0,52,0.00,,SKC,0.00,VWS V14.01,2013-11-28 21:19:00,
2013-11-28 15:30:00,33.7,17.5,30.43,North,0,5.0,10.0,51,0.00,,SKC,0.00,VWS V14.01,2013-11-28 21:30:00,
2013-11-28 16:00:00,33.3,17.6,30.44,North,0,5.0,10.0,52,0.00,,SKC,0.00,VWS V14.01,2013-11-28 22:00:00,
2013-11-28 16:30:00,32.5,17.7,30.45,NNE,22,2.0,7.0,54,0.00,,SKC,0.00,VWS V14.01,2013-11-28 22:30:00,
2013-11-28 17:00:00,31.0,17.2,30.46,North,0,0.0,4.0,56,0.00,,SKC,0.00,VWS V14.01,2013-11-28 23:00:00,
2013-11-28 17:37:00,27.7,15.6,30.48,North,350,0.0,0.0,60,0.00,,SKC,0.00,VWS V14.01,2013-11-28 23:37:00,
2013-11-28 17:41:00,27.3,15.3,30.48,North,350,0.0,0.0,60,0.00,,SKC,0.00,VWS V14.01,2013-11-28 23:41:00,
2013-11-28 17:49:00,27.0,15.7,30.48,North,350,0.0,0.0,62,0.00,,SKC,0.00,VWS V14.01,2013-11-28 23:49:00,
2013-11-28 17:53:00,26.9,15.6,30.48,North,350,0.0,0.0,62,0.00,,SKC,0.00,VWS V14.01,2013-11-28 23:53:00,
2013-11-28 17:58:00,26.9,15.6,30.48,North,350,0.0,0.0,62,0.00,,SKC,0.00,VWS V14.01,2013-11-28 23:58:00,
2013-11-28 17:59:00,26.9,15.6,30.48,North,350,0.0,0.0,62,0.00,,SKC,0.00,VWS V14.01,2013-11-28 23:59:00,
2013-11-28 18:02:00,26.6,15.7,30.49,North,350,0.0,0.0,63,0.00,,SKC,0.00,VWS V14.01,2013-11-29 00:02:00,
2013-11-28 18:06:00,26.4,15.5,30.49,North,350,0.0,0.0,63,0.00,,SKC,0.00,VWS V14.01,2013-11-29 00:06:00,
2013-11-28 18:10:00,26.2,15.3,30.49,North,350,0.0,0.0,63,0.00,,SKC,0.00,VWS V14.01,2013-11-29 00:10:00,
2013-11-28 18:14:00,26.0,15.1,30.48,North,350,0.0,0.0,63,0.00,,SKC,0.00,VWS V14.01,2013-11-29 00:14:00,
2013-11-28 18:18:00,25.8,15.3,30.48,North,350,0.0,0.0,64,0.00,,SKC,0.00,VWS V14.01,2013-11-29 00:18:00,
2013-11-28 18:22:00,25.7,15.6,30.49,North,355,0.0,0.0,65,0.00,,SKC,0.00,VWS V14.01,2013-11-29 00:22:00,
2013-11-28 18:26:00,25.6,15.5,30.48,North,355,0.0,0.0,65,0.00,,SKC,0.00,VWS V14.01,2013-11-29 00:26:00,
2013-11-28 18:29:00,25.4,15.3,30.49,North,355,0.0,0.0,65,0.00,,SKC,0.00,VWS V14.01,2013-11-29 00:29:00,
2013-11-28 18:30:00,25.4,15.3,30.49,North,355,0.0,0.0,65,0.00,,SKC,0.00,VWS V14.01,2013-11-29 00:30:00,
2013-11-28 18:34:00,25.3,15.2,30.49,North,355,0.0,0.0,65,0.00,,SKC,0.00,VWS V14.01,2013-11-29 00:34:00,
2013-11-28 18:42:00,25.3,15.6,30.49,NNW,348,0.0,0.0,66,0.00,,SKC,0.00,VWS V14.01,2013-11-29 00:42:00,
2013-11-28 18:46:00,25.2,15.4,30.49,North,350,0.0,0.0,66,0.00,,SKC,0.00,VWS V14.01,2013-11-29 00:46:00,
2013-11-28 18:50:00,25.1,15.4,30.48,NNW,348,0.0,0.0,66,0.00,,SKC,0.00,VWS V14.01,2013-11-29 00:50:00,
2013-11-28 18:54:00,24.9,15.2,30.48,North,350,0.0,2.0,66,0.00,,SKC,0.00,VWS V14.01,2013-11-29 00:54:00,
2013-11-28 18:58:00,24.7,15.3,30.49,North,349,0.0,2.0,67,0.00,,SKC,0.00,VWS V14.01,2013-11-29 00:58:00,
2013-11-28 19:02:00,24.5,15.1,30.48,NNW,345,0.0,0.0,67,0.00,,SKC,0.00,VWS V14.01,2013-11-29 01:02:00,
2013-11-28 19:06:00,24.4,15.0,30.49,NNW,342,0.0,0.0,67,0.00,,SKC,0.00,VWS V14.01,2013-11-29 01:06:00,
2013-11-28 19:10:00,24.4,15.4,30.49,NNW,342,0.0,0.0,68,0.00,,SKC,0.00,VWS V14.01,2013-11-29 01:10:00,
2013-11-28 19:14:00,24.5,15.5,30.49,NNW,344,0.0,0.0,68,0.00,,SKC,0.00,VWS V14.01,2013-11-29 01:14:00,
2013-11-28 19:18:00,24.5,15.5,30.49,NNW,344,0.0,0.0,68,0.00,,SKC,0.00,VWS V14.01,2013-11-29 01:18:00,
2013-11-28 19:22:00,24.5,15.5,30.49,NNW,342,0.0,0.0,68,0.00,,SKC,0.00,VWS V14.01,2013-11-29 01:22:00,
2013-11-28 19:26:00,24.5,15.5,30.49,NNW,342,0.0,0.0,68,0.00,,SKC,0.00,VWS V14.01,2013-11-29 01:26:00,
2013-11-28 19:30:00,24.5,15.5,30.50,NNW,342,0.0,0.0,68,0.00,,SKC,0.00,VWS V14.01,2013-11-29 01:30:00,
2013-11-28 19:34:00,24.4,15.4,30.50,NNW,342,0.0,0.0,68,0.00,,SKC,0.00,VWS V14.01,2013-11-29 01:34:00,
2013-11-28 19:38:00,24.3,15.3,30.49,NNW,342,0.0,0.0,68,0.00,,SKC,0.00,VWS V14.01,2013-11-29 01:38:00,
2013-11-28 19:42:00,24.2,15.2,30.49,NNW,342,0.0,0.0,68,0.00,,SKC,0.00,VWS V14.01,2013-11-29 01:42:00,
2013-11-28 19:46:00,24.2,15.5,30.49,NNW,342,0.0,0.0,69,0.00,,SKC,0.00,VWS V14.01,2013-11-29 01:46:00,
2013-11-28 19:50:00,24.2,15.5,30.49,NNW,342,0.0,0.0,69,0.00,,SKC,0.00,VWS V14.01,2013-11-29 01:50:00,
2013-11-28 19:54:00,24.1,15.4,30.49,NNW,342,0.0,0.0,69,0.00,,SKC,0.00,VWS V14.01,2013-11-29 01:54:00,
2013-11-28 19:58:00,24.0,15.3,30.49,NNW,342,0.0,0.0,69,0.00,,SKC,0.00,VWS V14.01,2013-11-29 01:58:00,
2013-11-28 19:59:00,23.9,15.2,30.49,NNW,342,0.0,0.0,69,0.00,,SKC,0.00,VWS V14.01,2013-11-29 01:59:00,
2013-11-28 20:02:00,23.8,15.1,30.49,NNW,342,0.0,0.0,69,0.00,,SKC,0.00,VWS V14.01,2013-11-29 02:02:00,
2013-11-28 20:06:00,23.7,15.0,30.49,NNW,342,0.0,0.0,69,0.00,,SKC,0.00,VWS V14.01,2013-11-29 02:06:00,
2013-11-28 20:14:00,23.6,15.3,30.50,NNW,342,0.0,0.0,70,0.00,,SKC,0.00,VWS V14.01,2013-11-29 02:14:00,
2013-11-28 20:18:00,23.5,14.8,30.50,NNW,342,0.0,0.0,69,0.00,,SKC,0.00,VWS V14.01,2013-11-29 02:18:00,
2013-11-28 20:22:00,23.1,14.5,30.50,NNW,342,0.0,0.0,69,0.00,,SKC,0.00,VWS V14.01,2013-11-29 02:22:00,
2013-11-28 20:26:00,22.7,14.4,30.50,NNW,342,0.0,0.0,70,0.00,,SKC,0.00,VWS V14.01,2013-11-29 02:26:00,
2013-11-28 20:29:00,22.5,14.2,30.50,NNW,342,0.0,0.0,70,0.00,,SKC,0.00,VWS V14.01,2013-11-29 02:29:00,
2013-11-28 20:30:00,22.4,14.1,30.50,NNW,342,0.0,0.0,70,0.00,,SKC,0.00,VWS V14.01,2013-11-29 02:30:00,
2013-11-28 20:34:00,22.1,14.1,30.50,NNW,342,0.0,0.0,71,0.00,,SKC,0.00,VWS V14.01,2013-11-29 02:34:00,
2013-11-28 20:38:00,22.0,14.4,30.50,NNW,342,0.0,0.0,72,0.00,,SKC,0.00,VWS V14.01,2013-11-29 02:38:00,
2013-11-28 20:42:00,21.8,14.2,30.50,NNW,342,0.0,0.0,72,0.00,,SKC,0.00,VWS V14.01,2013-11-29 02:42:00,
2013-11-28 20:46:00,21.6,14.0,30.50,NNW,342,0.0,0.0,72,0.00,,SKC,0.00,VWS V14.01,2013-11-29 02:46:00,
2013-11-28 20:50:00,21.3,13.7,30.50,NNW,342,0.0,0.0,72,0.00,,SKC,0.00,VWS V14.01,2013-11-29 02:50:00,
2013-11-28 20:58:00,20.8,13.5,30.50,NNW,342,0.0,0.0,73,0.00,,SKC,0.00,VWS V14.01,2013-11-29 02:58:00,
2013-11-28 20:59:00,20.8,13.5,30.50,NNW,342,0.0,0.0,73,0.00,,SKC,0.00,VWS V14.01,2013-11-29 02:59:00,
2013-11-28 21:06:00,20.0,12.8,30.50,NNW,342,0.0,0.0,73,0.00,,SKC,0.00,VWS V14.01,2013-11-29 03:06:00,
2013-11-28 21:10:00,19.6,12.7,30.51,NNW,342,0.0,0.0,74,0.00,,SKC,0.00,VWS V14.01,2013-11-29 03:10:00,
2013-11-28 21:14:00,19.2,12.0,30.51,NNW,341,0.0,0.0,73,0.00,,SKC,0.00,VWS V14.01,2013-11-29 03:14:00,
2013-11-28 21:18:00,18.6,11.7,30.51,South,179,0.0,0.0,74,0.00,,SKC,0.00,VWS V14.01,2013-11-29 03:18:00,
2013-11-28 21:22:00,17.8,11.5,30.52,South,179,0.0,0.0,76,0.00,,SKC,0.00,VWS V14.01,2013-11-29 03:22:00,
2013-11-28 21:26:00,17.7,11.7,30.51,South,179,0.0,0.0,77,0.00,,SKC,0.00,VWS V14.01,2013-11-29 03:26:00,
2013-11-28 21:29:00,17.9,12.5,30.51,South,179,0.0,0.0,79,0.00,,SKC,0.00,VWS V14.01,2013-11-29 03:29:00,
2013-11-28 21:30:00,18.1,12.7,30.51,South,179,0.0,0.0,79,0.00,,SKC,0.00,VWS V14.01,2013-11-29 03:30:00,
2013-11-28 21:34:00,18.1,12.1,30.52,South,179,0.0,0.0,77,0.00,,SKC,0.00,VWS V14.01,2013-11-29 03:34:00,
2013-11-28 21:38:00,18.0,12.0,30.52,South,179,0.0,0.0,77,0.00,,SKC,0.00,VWS V14.01,2013-11-29 03:38:00,
2013-11-28 21:42:00,18.2,12.5,30.52,South,179,0.0,0.0,78,0.00,,SKC,0.00,VWS V14.01,2013-11-29 03:42:00,
2013-11-28 21:46:00,18.5,12.8,30.52,South,179,0.0,0.0,78,0.00,,SKC,0.00,VWS V14.01,2013-11-29 03:46:00,
2013-11-28 21:50:00,18.8,13.1,30.52,South,179,0.0,0.0,78,0.00,,SKC,0.00,VWS V14.01,2013-11-29 03:50:00,
2013-11-28 21:54:00,19.0,13.3,30.52,South,179,0.0,0.0,78,0.00,,SKC,0.00,VWS V14.01,2013-11-29 03:54:00,
2013-11-28 21:58:00,19.1,13.4,30.52,South,179,0.0,0.0,78,0.00,,SKC,0.00,VWS V14.01,2013-11-29 03:58:00,
2013-11-28 21:59:00,19.1,13.4,30.52,South,179,0.0,0.0,78,0.00,,SKC,0.00,VWS V14.01,2013-11-29 03:59:00,
2013-11-28 22:06:00,19.7,14.0,30.52,South,179,0.0,0.0,78,0.00,,SKC,0.00,VWS V14.01,2013-11-29 04:06:00,
2013-11-28 22:10:00,20.2,14.2,30.52,South,179,0.0,0.0,77,0.00,,SKC,0.00,VWS V14.01,2013-11-29 04:10:00,
2013-11-28 22:14:00,20.4,14.4,30.52,South,179,0.0,0.0,77,0.00,,SKC,0.00,VWS V14.01,2013-11-29 04:14:00,
2013-11-28 22:18:00,20.7,14.4,30.52,South,180,0.0,0.0,76,0.00,,SKC,0.00,VWS V14.01,2013-11-29 04:18:00,
2013-11-28 22:22:00,20.7,14.4,30.52,South,180,0.0,0.0,76,0.00,,SKC,0.00,VWS V14.01,2013-11-29 04:22:00,
2013-11-28 22:26:00,20.5,13.9,30.52,South,180,0.0,0.0,75,0.00,,SKC,0.00,VWS V14.01,2013-11-29 04:26:00,
2013-11-28 22:29:00,20.2,13.2,30.52,South,180,0.0,0.0,74,0.00,,SKC,0.00,VWS V14.01,2013-11-29 04:29:00,
2013-11-28 22:30:00,20.1,13.2,30.52,South,180,0.0,0.0,74,0.00,,SKC,0.00,VWS V14.01,2013-11-29 04:30:00,
2013-11-28 22:34:00,19.5,12.6,30.52,South,180,0.0,0.0,74,0.00,,SKC,0.00,VWS V14.01,2013-11-29 04:34:00,
2013-11-28 22:38:00,19.0,12.4,30.52,South,180,0.0,0.0,75,0.00,,SKC,0.00,VWS V14.01,2013-11-29 04:38:00,
2013-11-28 22:42:00,18.6,12.3,30.52,South,180,0.0,0.0,76,0.00,,SKC,0.00,VWS V14.01,2013-11-29 04:42:00,
2013-11-28 22:46:00,18.4,12.4,30.52,South,180,0.0,0.0,77,0.00,,SKC,0.00,VWS V14.01,2013-11-29 04:46:00,
2013-11-28 22:50:00,18.3,12.3,30.52,South,180,0.0,0.0,77,0.00,,SKC,0.00,VWS V14.01,2013-11-29 04:50:00,
2013-11-28 22:58:00,16.9,10.7,30.52,South,180,0.0,0.0,76,0.00,,SKC,0.00,VWS V14.01,2013-11-29 04:58:00,
2013-11-28 22:59:00,16.7,10.5,30.52,South,180,0.0,0.0,76,0.00,,SKC,0.00,VWS V14.01,2013-11-29 04:59:00,
2013-11-28 23:02:00,15.9,10.3,30.52,South,180,0.0,0.0,78,0.00,,SKC,0.00,VWS V14.01,2013-11-29 05:02:00,
2013-11-28 23:06:00,15.1,9.8,30.52,South,180,0.0,0.0,79,0.00,,SKC,0.00,VWS V14.01,2013-11-29 05:06:00,
2013-11-28 23:10:00,14.8,9.8,30.53,South,180,0.0,0.0,80,0.00,,SKC,0.00,VWS V14.01,2013-11-29 05:10:00,
2013-11-28 23:18:00,14.8,10.3,30.52,South,180,0.0,0.0,82,0.00,,SKC,0.00,VWS V14.01,2013-11-29 05:18:00,
2013-11-28 23:22:00,15.0,10.5,30.52,South,180,0.0,0.0,82,0.00,,SKC,0.00,VWS V14.01,2013-11-29 05:22:00,
2013-11-28 23:26:00,15.1,10.6,30.52,South,180,0.0,0.0,82,0.00,,SKC,0.00,VWS V14.01,2013-11-29 05:26:00,
2013-11-28 23:29:00,15.2,11.0,30.53,South,180,0.0,0.0,83,0.00,,SKC,0.00,VWS V14.01,2013-11-29 05:29:00,
2013-11-28 23:30:00,15.2,11.0,30.53,South,180,0.0,0.0,83,0.00,,SKC,0.00,VWS V14.01,2013-11-29 05:30:00,
2013-11-28 23:34:00,15.3,11.1,30.53,South,180,0.0,0.0,83,0.00,,SKC,0.00,VWS V14.01,2013-11-29 05:34:00,
2013-11-28 23:42:00,15.4,11.2,30.53,South,180,0.0,0.0,83,0.00,,SKC,0.00,VWS V14.01,2013-11-29 05:42:00,
2013-11-28 23:50:00,15.4,11.2,30.53,South,180,0.0,0.0,83,0.00,,SKC,0.00,VWS V14.01,2013-11-29 05:50:00,
2013-11-28 23:54:00,15.4,11.2,30.53,South,180,0.0,0.0,83,0.00,,SKC,0.00,VWS V14.01,2013-11-29 05:54:00,
2013-11-28 23:58:00,15.4,11.2,30.53,South,180,0.0,0.0,83,0.00,,SKC,0.00,VWS V14.01,2013-11-29 05:58:00,
2013-11-28 23:59:00,15.4,11.2,30.53,South,180,0.0,0.0,83,0.00,,SKC,0.00,VWS V14.01,2013-11-29 05:59:00,